FW4650 Offingawier NL current weather conditions

sailwx.info

Wind from 007 at 6 knots gusting 6

Air temperature 23.3° C

Last reported at 2020-Aug-08 22:05 UTC.
Time now 2020-Aug-08 22:44 UTC

Location: N 53°01' E 005°44'.
View on Google Maps.

See reports from other nearby stations

  
Tides and Currents Weather Stations Pressure Air Temp Water Temp Dewpoint Dewpoint Depression Visibility Wind Speed Wind Dir Waves Ship Positions
date/time (UTC)wind fromknots sea level pressurealtimeterstation pressurevisibilityair tempwater tempwave heightnotes
2020-Aug-08 22:05 007 6 gusting 6 23.3
2020-Aug-08 21:55 003 5 gusting 6 23.3
2020-Aug-08 21:45 008 6 gusting 6 23.9
2020-Aug-08 21:35 008 6 gusting 6 23.9
2020-Aug-08 21:25 352 6 gusting 7 23.9
2020-Aug-08 21:15 001 5 gusting 6 23.9
2020-Aug-08 21:05 008 6 gusting 7 23.9
2020-Aug-08 20:55 351 6 gusting 8 23.9
2020-Aug-08 20:45 005 5 gusting 6 24.4
2020-Aug-08 20:35 007 4 gusting 6 24.4
2020-Aug-08 20:25 349 4 gusting 6 24.4
2020-Aug-08 20:15 348 3 gusting 5 25.0
2020-Aug-08 20:05 006 4 gusting 6 25.0
2020-Aug-08 19:55 355 4 gusting 6 25.0
2020-Aug-08 19:45 007 6 gusting 8 25.0
2020-Aug-08 19:35 014 6 gusting 8 25.0
2020-Aug-08 19:25 356 6 gusting 7 25.6
2020-Aug-08 19:15 26.1
2020-Aug-08 19:05 357 6 gusting 7 26.1
2020-Aug-08 18:55 345 5 gusting 6 26.7
2020-Aug-08 18:45 351 6 gusting 7 26.7
2020-Aug-08 18:35 355 6 gusting 9 26.7
2020-Aug-08 18:25 346 6 gusting 7 27.2
2020-Aug-08 18:15 344 6 gusting 8 27.2
2020-Aug-08 18:05 356 6 gusting 8 27.8
2020-Aug-08 17:55 346 6 gusting 7 27.8
2020-Aug-08 17:45 342 5 gusting 6 27.8
2020-Aug-08 17:35 340 6 gusting 8 28.3
2020-Aug-08 17:25 001 5 gusting 6 28.3
2020-Aug-08 17:15 336 5 gusting 7 28.3
2020-Aug-08 17:05 008 6 gusting 8 28.3
2020-Aug-08 16:55 010 6 gusting 8 28.9
2020-Aug-08 16:45 355 8 gusting 11 29.4
2020-Aug-08 16:35 001 6 gusting 9 30.0
2020-Aug-08 16:25 346 7 gusting 10 30.6
2020-Aug-08 16:15 342 6 gusting 9 30.6
2020-Aug-08 16:05 344 7 gusting 11 30.6
2020-Aug-08 15:55 355 9 gusting 11 31.1
2020-Aug-08 15:45 342 8 gusting 11 31.7
2020-Aug-08 15:35 344 5 gusting 7 32.2
2020-Aug-08 15:25 345 6 gusting 8 31.7
2020-Aug-08 15:15 340 6 gusting 8 31.7
2020-Aug-08 15:05 330 6 gusting 10 32.2
2020-Aug-08 14:55 346 3 gusting 6 32.8
2020-Aug-08 14:45 002 3 gusting 4 32.8
2020-Aug-08 14:35 021 1 gusting 2 32.2
2020-Aug-08 14:25 023 2 gusting 2 32.2
2020-Aug-08 14:15 32.8
2020-Aug-08 14:05 32.2
2020-Aug-08 13:55 33.3
2020-Aug-08 13:45 32.8
2020-Aug-08 13:35 31.7
2020-Aug-08 13:25 31.7
2020-Aug-08 13:15 32.2
2020-Aug-08 13:05 32.2
2020-Aug-08 12:55 32.2
2020-Aug-08 12:45 32.8
2020-Aug-08 12:35 32.8
2020-Aug-08 12:25 022 33.3
2020-Aug-08 12:15 021 0 gusting 1 32.8
2020-Aug-08 12:05 042 1 gusting 1 32.2
2020-Aug-08 11:55 056 3 gusting 3 31.7
2020-Aug-08 11:45 039 2 gusting 2 32.2
2020-Aug-08 11:35 046 2 gusting 2 32.2
2020-Aug-08 11:25 036 2 gusting 2 31.7
2020-Aug-08 11:15 038 2 gusting 3 31.1
2020-Aug-08 11:05 053 3 gusting 3 30.6
2020-Aug-08 10:55 059 2 gusting 3 30.6
2020-Aug-08 10:45 061 2 gusting 3 30.0
2020-Aug-08 10:35 064 3 gusting 4 29.4
2020-Aug-08 10:25 045 3 gusting 4 30.0
2020-Aug-08 10:15 30.0
2020-Aug-08 10:05 30.0
2020-Aug-08 09:55 30.0
2020-Aug-08 09:45 30.0
2020-Aug-08 09:35 30.0
2020-Aug-08 09:25 29.4
2020-Aug-08 09:15 30.0
2020-Aug-08 09:05 31.1
2020-Aug-08 08:55 267 30.6
2020-Aug-08 08:45 31.1
2020-Aug-08 08:35 35.6
2020-Aug-08 08:25 35.0
2020-Aug-08 08:15 147 2 gusting 3 36.7
2020-Aug-08 08:05 136 3 gusting 4 33.9
2020-Aug-08 07:55 122 2 gusting 3 33.3
2020-Aug-08 07:45 111 2 gusting 2 32.8
2020-Aug-08 07:35 105 2 gusting 2 32.8
2020-Aug-08 07:25 101 1 gusting 2 33.9
2020-Aug-08 07:15 114 0 gusting 1 31.7
2020-Aug-08 07:05 109 1 gusting 2 32.2
2020-Aug-08 06:55 100 3 gusting 3 31.7
2020-Aug-08 06:45 094 3 gusting 4 32.2
2020-Aug-08 06:35 075 0 gusting 1 34.4
2020-Aug-08 06:25 098 0 gusting 1 32.8
2020-Aug-08 06:15 085 33.3
2020-Aug-08 06:05 100 0 gusting 2 31.7
2020-Aug-08 05:55 31.7
2020-Aug-08 05:45 130 2 gusting 2 28.9
2020-Aug-08 05:35 123 3 gusting 4 27.2
2020-Aug-08 05:25 102 2 gusting 3 22.8
2020-Aug-08 05:15 097 2 gusting 2 27.2
2020-Aug-08 05:06 098 2 gusting 3 25.0
2020-Aug-08 04:55 092 2 gusting 3 25.6
2020-Aug-08 04:45 090 2 gusting 2 24.4
2020-Aug-08 04:35 082 1 gusting 2 23.3
2020-Aug-08 04:25 093 1 gusting 3 21.7
2020-Aug-08 04:15 103 1 gusting 2 21.1
2020-Aug-08 04:05 087 2 gusting 2 20.6
2020-Aug-08 03:55 088 2 gusting 3 20.6
2020-Aug-08 03:45 088 3 gusting 4 20.6
2020-Aug-08 03:35 086 3 gusting 4 21.1
2020-Aug-08 03:25 085 2 gusting 3 21.1
2020-Aug-08 03:15 084 2 gusting 3 21.1
2020-Aug-08 03:05 085 2 gusting 2 21.1
2020-Aug-08 02:55 074 2 gusting 3 21.1
2020-Aug-08 02:45 065 2 gusting 2 21.1
2020-Aug-08 02:35 067 2 gusting 2 21.1
2020-Aug-08 02:25 069 2 gusting 2 21.7
2020-Aug-08 02:15 081 3 gusting 4 21.1
2020-Aug-08 02:05 086 3 gusting 3 21.1
2020-Aug-08 01:55 089 4 gusting 5 21.1
2020-Aug-08 01:45 092 4 gusting 5 21.7
2020-Aug-08 01:35 092 4 gusting 6 21.7
2020-Aug-08 01:25 090 4 gusting 4 21.7
2020-Aug-08 01:15 075 3 gusting 4 21.7
2020-Aug-08 01:05 078 3 gusting 4 21.7
2020-Aug-08 00:55 089 3 gusting 5 22.2
2020-Aug-08 00:45 083 3 gusting 4 22.2
2020-Aug-08 00:35 072 4 gusting 5 22.2
2020-Aug-08 00:25 068 3 gusting 5 22.2
2020-Aug-08 00:15 072 3 gusting 4 22.2
2020-Aug-08 00:05 068 3 gusting 4 22.2
2020-Aug-07 23:55 056 3 gusting 4 22.2
2020-Aug-07 23:45 058 2 gusting 3 22.8
2020-Aug-07 23:35 059 2 gusting 3 22.8
2020-Aug-07 23:25 056 4 gusting 5 22.8
2020-Aug-07 23:15 050 3 gusting 4 22.8
2020-Aug-07 23:05 044 4 gusting 5 23.3
2020-Aug-07 22:55 043 4 gusting 5 23.3
2020-Aug-07 22:45 035 5 gusting 6 23.3
2020-Aug-07 22:35 037 5 gusting 6 23.3
2020-Aug-07 22:25 032 4 gusting 5 23.3
2020-Aug-07 22:15 030 4 gusting 5 23.3
2020-Aug-07 22:05 029 3 gusting 5 23.3
2020-Aug-07 21:55 022 4 gusting 5 23.3
2020-Aug-07 21:45 015 4 gusting 6 23.9
2020-Aug-07 21:35 016 4 gusting 5 23.9
2020-Aug-07 21:25 010 4 gusting 5 23.9
2020-Aug-07 21:15 010 4 gusting 6 23.9
2020-Aug-07 21:05 010 4 gusting 5 23.9
2020-Aug-07 20:55 009 4 gusting 5 24.4
2020-Aug-07 20:45 017 5 gusting 6 24.4
2020-Aug-07 20:35 018 5 gusting 6 24.4
2020-Aug-07 20:25 020 4 gusting 6 24.4
2020-Aug-07 20:15 021 5 gusting 6 25.0
2020-Aug-07 20:05 014 4 gusting 5 25.0
2020-Aug-07 19:55 017 5 gusting 5 25.0
2020-Aug-07 19:45 019 6 gusting 6 25.0
2020-Aug-07 19:35 008 5 gusting 6 25.6
2020-Aug-07 19:25 007 4 gusting 6 25.6
2020-Aug-07 19:15 021 6 gusting 6 25.6
2020-Aug-07 19:05 021 6 gusting 6 26.1
2020-Aug-07 18:55 010 6 gusting 6 26.7
2020-Aug-07 18:45 006 5 gusting 6 26.7
2020-Aug-07 18:35 007 6 gusting 6 26.7
2020-Aug-07 18:25 009 5 gusting 6 27.2
2020-Aug-07 18:15 017 5 gusting 6 27.2
2020-Aug-07 18:05 019 5 gusting 6 27.8
2020-Aug-07 17:55 016 6 gusting 7 27.8
2020-Aug-07 17:45 013 6 gusting 7 28.3
2020-Aug-07 17:35 017 6 gusting 6 28.3
2020-Aug-07 17:25 021 6 gusting 6 28.3
2020-Aug-07 17:15 023 6 gusting 7 28.3
2020-Aug-07 17:05 027 6 gusting 7 28.3
2020-Aug-07 16:55 030 6 gusting 7 28.9
2020-Aug-07 16:45 022 5 gusting 6 28.9
2020-Aug-07 16:35 016 4 gusting 6 28.9
2020-Aug-07 16:25 020 2 gusting 3 29.4
2020-Aug-07 16:15 036 3 gusting 4 29.4
2020-Aug-07 16:05 019 2 gusting 3 28.9
2020-Aug-07 15:55 028 3 gusting 4 29.4
2020-Aug-07 15:45 023 3 gusting 4 28.9
2020-Aug-07 15:35 013 2 gusting 3 28.9
2020-Aug-07 15:25 017 2 gusting 4 28.9
2020-Aug-07 15:15 035 4 gusting 5 29.4
2020-Aug-07 15:05 012 4 gusting 6 29.4
2020-Aug-07 14:55 028 4 gusting 5 28.9
2020-Aug-07 14:45 039 4 gusting 5 28.9
2020-Aug-07 14:35 024 2 gusting 3 28.9
2020-Aug-07 14:25 033 3 gusting 4 28.9
2020-Aug-07 14:15 046 4 gusting 5 28.9
2020-Aug-07 14:05 003 2 gusting 4 28.9
2020-Aug-07 13:55 046 4 gusting 6 29.4
2020-Aug-07 13:45 041 5 gusting 6 28.9
2020-Aug-07 13:35 053 4 gusting 5 28.9
2020-Aug-07 13:25 036 5 gusting 6 28.9
2020-Aug-07 13:15 051 5 gusting 7 28.9
2020-Aug-07 13:05 035 5 gusting 6 28.9
2020-Aug-07 12:55 042 5 gusting 6 28.9
2020-Aug-07 12:45 042 6 gusting 8 28.3
2020-Aug-07 12:35 043 4 gusting 5 28.9
2020-Aug-07 12:25 071 3 gusting 4 28.9
2020-Aug-07 12:15 051 4 gusting 5 28.3
2020-Aug-07 12:05 076 4 gusting 5 28.9
2020-Aug-07 11:55 080 6 gusting 8 28.9
2020-Aug-07 11:45 088 3 gusting 5 28.9
2020-Aug-07 11:35 086 6 gusting 7 28.3
2020-Aug-07 11:25 085 7 gusting 10 28.9
2020-Aug-07 11:15 081 7 gusting 10 28.3
2020-Aug-07 11:05 080 6 gusting 7 28.3
2020-Aug-07 10:55 085 7 gusting 9 28.3
2020-Aug-07 10:45 079 6 gusting 8 28.3
2020-Aug-07 10:35 073 6 gusting 7 28.3
2020-Aug-07 10:25 050 4 gusting 6 27.8
2020-Aug-07 10:15 045 5 gusting 6 27.8
2020-Aug-07 10:05 048 3 gusting 4 27.8
2020-Aug-07 09:55 040 3 gusting 4 28.3
2020-Aug-07 09:45 031 2 gusting 2 28.3
2020-Aug-07 09:35 040 2 gusting 3 27.8
2020-Aug-07 09:25 027 2 gusting 3 27.8
2020-Aug-07 09:15 055 2 gusting 3 27.8
2020-Aug-07 09:05 113 4 gusting 5 27.2
2020-Aug-07 08:55 121 3 gusting 4 27.2
2020-Aug-07 08:45 113 4 gusting 5 27.2
2020-Aug-07 08:35 104 3 gusting 3 31.7
2020-Aug-07 08:25 109 3 gusting 4 31.1
2020-Aug-07 08:15 104 4 gusting 5 30.0
2020-Aug-07 08:05 113 5 gusting 6 30.0
2020-Aug-07 07:55 109 6 gusting 6 29.4
2020-Aug-07 07:45 115 6 gusting 7 29.4
2020-Aug-07 07:35 110 6 gusting 6 29.4
2020-Aug-07 07:25 105 6 gusting 7 29.4
2020-Aug-07 07:15 098 4 gusting 6 30.0
2020-Aug-07 07:05 084 4 gusting 5 31.1
2020-Aug-07 06:55 093 4 gusting 5 29.4
2020-Aug-07 06:45 111 3 gusting 4 29.4
2020-Aug-07 06:35 115 4 gusting 6 28.3
2020-Aug-07 06:25 110 4 gusting 5 28.3
2020-Aug-07 06:15 109 2 gusting 3 30.0
2020-Aug-07 06:05 096 2 gusting 4 28.9
2020-Aug-07 05:55 105 3 gusting 4 27.8
2020-Aug-07 05:45 099 3 gusting 4 27.8
2020-Aug-07 05:35 100 3 gusting 4 27.2
2020-Aug-07 05:25 099 3 gusting 4 25.0
2020-Aug-07 05:15 092 3 gusting 4 24.4
2020-Aug-07 05:05 086 4 gusting 6 22.8
2020-Aug-07 04:55 081 5 gusting 6 21.7
2020-Aug-07 04:45 087 5 gusting 6 20.6
2020-Aug-07 04:35 086 5 gusting 6 19.4
2020-Aug-07 04:25 093 5 gusting 6 18.9
2020-Aug-07 04:15 082 4 gusting 6 18.3
2020-Aug-07 04:05 077 5 gusting 6 18.3
2020-Aug-07 03:55 073 6 gusting 6 17.8
2020-Aug-07 03:45 073 5 gusting 6 18.3
2020-Aug-07 03:35 071 5 gusting 6 18.3
2020-Aug-07 03:25 074 6 gusting 6 18.3
2020-Aug-07 03:15 077 5 gusting 6 18.3
2020-Aug-07 03:05 070 5 gusting 6 18.3
2020-Aug-07 02:55 073 4 gusting 5 18.3
2020-Aug-07 02:45 072 4 gusting 5 18.3
2020-Aug-07 02:35 073 5 gusting 6 18.9
2020-Aug-07 02:25 067 5 gusting 6 18.9
2020-Aug-07 02:15 074 5 gusting 6 18.9
2020-Aug-07 02:05 066 6 gusting 6 18.9
2020-Aug-07 01:55 059 6 gusting 7 18.9
2020-Aug-07 01:45 059 6 gusting 8 18.9
2020-Aug-07 01:35 058 7 gusting 8 18.9
2020-Aug-07 01:25 062 8 gusting 9 19.4
2020-Aug-07 01:15 049 6 gusting 8 19.4
2020-Aug-07 01:05 047 7 gusting 8 19.4
2020-Aug-07 00:55 048 7 gusting 8 19.4
2020-Aug-07 00:45 049 7 gusting 9 19.4
2020-Aug-07 00:35 047 7 gusting 9 20.0
2020-Aug-07 00:25 042 6 gusting 8 20.0
2020-Aug-07 00:15 047 6 gusting 7 20.0
2020-Aug-07 00:05 043 6 gusting 7 20.0
2020-Aug-06 23:55 042 6 gusting 6 20.0
2020-Aug-06 23:45 035 6 gusting 7 20.0
2020-Aug-06 23:35 033 6 gusting 6 20.0
2020-Aug-06 23:25 034 6 gusting 7 20.0
2020-Aug-06 23:15 035 6 gusting 7 20.0
2020-Aug-06 23:05 036 6 gusting 7 20.0
2020-Aug-06 22:55 035 6 gusting 7 20.0
2020-Aug-06 22:45 036 6 gusting 7 20.0
2020-Aug-06 22:35 034 6 gusting 7 20.0
2020-Aug-06 22:25 038 6 gusting 8 20.0
2020-Aug-06 22:15 036 7 gusting 8 20.0
2020-Aug-06 22:05 030 7 gusting 8 20.6